sensor_id;sensor_type;location;lat;lon;timestamp;pressure;altitude;pressure_sealevel;temperature;humidity
35908;BME280;22003;50.320;8.054;2023-04-09T04:00:26;100498.81;;;5.05;100.00
35908;BME280;22003;50.320;8.054;2023-04-09T04:02:51;100522.91;;;5.15;100.00
35908;BME280;22003;50.320;8.054;2023-04-09T04:05:16;100514.66;;;5.03;100.00
35908;BME280;22003;50.320;8.054;2023-04-09T04:07:42;100526.19;;;4.99;100.00
35908;BME280;22003;50.320;8.054;2023-04-09T04:10:08;100525.88;;;4.87;100.00
35908;BME280;22003;50.320;8.054;2023-04-09T04:12:33;100516.28;;;4.86;100.00
35908;BME280;22003;50.320;8.054;2023-04-09T04:14:59;100517.84;;;5.10;100.00
35908;BME280;22003;50.320;8.054;2023-04-09T04:17:25;100527.00;;;5.01;100.00
35908;BME280;22003;50.320;8.054;2023-04-09T04:19:50;100499.09;;;4.79;100.00
35908;BME280;22003;50.320;8.054;2023-04-09T04:22:15;100536.50;;;4.84;100.00
35908;BME280;22003;50.320;8.054;2023-04-09T04:24:40;100535.00;;;4.78;100.00
35908;BME280;22003;50.320;8.054;2023-04-09T04:27:05;100516.47;;;4.81;100.00
35908;BME280;22003;50.320;8.054;2023-04-09T04:29:31;100533.41;;;4.74;100.00
35908;BME280;22003;50.320;8.054;2023-04-09T04:31:56;100528.22;;;4.72;100.00
35908;BME280;22003;50.320;8.054;2023-04-09T04:34:21;100475.41;;;4.38;100.00
35908;BME280;22003;50.320;8.054;2023-04-09T04:36:47;100519.47;;;4.52;100.00
35908;BME280;22003;50.320;8.054;2023-04-09T04:39:12;100534.59;;;4.45;100.00
35908;BME280;22003;50.320;8.054;2023-04-09T04:41:37;100530.97;;;4.69;100.00
35908;BME280;22003;50.320;8.054;2023-04-09T04:44:02;100530.00;;;4.72;99.43
35908;BME280;22003;50.320;8.054;2023-04-09T04:46:27;100531.56;;;4.34;98.74
35908;BME280;22003;50.320;8.054;2023-04-09T04:48:53;100535.25;;;4.06;100.00
35908;BME280;22003;50.320;8.054;2023-04-09T04:51:18;100437.81;;;3.50;100.00
35908;BME280;22003;50.320;8.054;2023-04-09T04:53:43;100536.59;;;3.94;100.00
35908;BME280;22003;50.320;8.054;2023-04-09T04:56:12;100547.09;;;3.93;100.00
35908;BME280;22003;50.320;8.054;2023-04-09T04:58:38;100545.31;;;3.95;100.00
35908;BME280;22003;50.320;8.054;2023-04-09T05:01:03;100537.25;;;3.76;100.00
35908;BME280;22003;50.320;8.054;2023-04-09T05:03:29;100536.16;;;3.82;100.00
35908;BME280;22003;50.320;8.054;2023-04-09T05:05:54;100548.81;;;3.70;100.00
35908;BME280;22003;50.320;8.054;2023-04-09T05:08:19;100542.34;;;3.57;100.00
35908;BME280;22003;50.320;8.054;2023-04-09T05:10:45;100541.88;;;3.21;100.00
35908;BME280;22003;50.320;8.054;2023-04-09T05:13:11;100544.75;;;3.13;100.00
35908;BME280;22003;50.320;8.054;2023-04-09T05:15:37;100539.47;;;3.40;100.00
35908;BME280;22003;50.320;8.054;2023-04-09T05:18:03;100541.97;;;3.43;100.00
35908;BME280;22003;50.320;8.054;2023-04-09T05:20:29;100542.09;;;3.63;100.00
35908;BME280;22003;50.320;8.054;2023-04-09T05:22:54;100490.25;;;3.48;100.00
35908;BME280;22003;50.320;8.054;2023-04-09T05:25:19;100491.09;;;3.50;100.00
35908;BME280;22003;50.320;8.054;2023-04-09T05:27:45;100516.28;;;3.76;100.00
35908;BME280;22003;50.320;8.054;2023-04-09T05:30:10;100551.31;;;3.97;100.00
35908;BME280;22003;50.320;8.054;2023-04-09T05:32:36;100549.22;;;4.07;100.00
35908;BME280;22003;50.320;8.054;2023-04-09T05:35:01;100541.53;;;4.02;100.00
35908;BME280;22003;50.320;8.054;2023-04-09T05:37:26;100515.13;;;4.07;100.00
35908;BME280;22003;50.320;8.054;2023-04-09T05:39:51;100548.44;;;4.27;99.96
35908;BME280;22003;50.320;8.054;2023-04-09T05:42:17;100545.28;;;4.40;100.00
35908;BME280;22003;50.320;8.054;2023-04-09T05:44:42;100537.25;;;4.65;98.31
35908;BME280;22003;50.320;8.054;2023-04-09T05:47:07;100536.97;;;4.93;97.52
35908;BME280;22003;50.320;8.054;2023-04-09T05:49:32;100536.66;;;5.01;95.77
35908;BME280;22003;50.320;8.054;2023-04-09T05:51:58;100533.09;;;5.02;95.35
35908;BME280;22003;50.320;8.054;2023-04-09T05:54:23;100496.59;;;4.75;94.53
35908;BME280;22003;50.320;8.054;2023-04-09T05:56:48;100557.00;;;4.96;95.86
35908;BME280;22003;50.320;8.054;2023-04-09T05:59:13;100507.09;;;4.75;96.85
35908;BME280;22003;50.320;8.054;2023-04-09T06:01:39;100558.13;;;5.31;97.64
35908;BME280;22003;50.320;8.054;2023-04-09T06:04:04;100556.59;;;5.46;97.52
35908;BME280;22003;50.320;8.054;2023-04-09T06:06:29;100557.34;;;5.68;95.70
35908;BME280;22003;50.320;8.054;2023-04-09T06:08:55;100558.28;;;5.86;96.95
35908;BME280;22003;50.320;8.054;2023-04-09T06:11:20;100560.06;;;6.06;97.00
35908;BME280;22003;50.320;8.054;2023-04-09T06:13:47;100572.28;;;5.87;96.51
35908;BME280;22003;50.320;8.054;2023-04-09T06:16:12;100571.53;;;5.85;98.95
35908;BME280;22003;50.320;8.054;2023-04-09T06:18:37;100531.72;;;5.73;98.53
35908;BME280;22003;50.320;8.054;2023-04-09T06:21:07;100451.69;;;5.60;97.65
35908;BME280;22003;50.320;8.054;2023-04-09T06:23:34;100562.66;;;6.25;97.95
35908;BME280;22003;50.320;8.054;2023-04-09T06:25:59;100511.41;;;5.96;98.65
35908;BME280;22003;50.320;8.054;2023-04-09T06:28:25;100558.94;;;6.48;97.35
35908;BME280;22003;50.320;8.054;2023-04-09T06:30:50;100568.88;;;6.60;96.20
35908;BME280;22003;50.320;8.054;2023-04-09T06:33:17;100571.47;;;6.43;95.19
35908;BME280;22003;50.320;8.054;2023-04-09T06:35:43;100562.63;;;6.44;96.78
35908;BME280;22003;50.320;8.054;2023-04-09T06:38:08;100567.66;;;6.67;95.95
35908;BME280;22003;50.320;8.054;2023-04-09T06:40:36;100559.09;;;6.45;95.94
35908;BME280;22003;50.320;8.054;2023-04-09T06:43:01;100565.47;;;6.58;93.27
35908;BME280;22003;50.320;8.054;2023-04-09T06:45:27;100572.25;;;6.81;95.08
35908;BME280;22003;50.320;8.054;2023-04-09T06:47:52;100568.44;;;6.69;98.17
35908;BME280;22003;50.320;8.054;2023-04-09T06:50:17;100573.34;;;6.94;95.06
35908;BME280;22003;50.320;8.054;2023-04-09T06:52:42;100567.50;;;7.57;91.25
35908;BME280;22003;50.320;8.054;2023-04-09T06:55:08;100577.16;;;7.06;90.87
35908;BME280;22003;50.320;8.054;2023-04-09T06:57:33;100574.91;;;7.33;90.65
35908;BME280;22003;50.320;8.054;2023-04-09T06:59:58;100547.69;;;6.80;89.31
35908;BME280;22003;50.320;8.054;2023-04-09T07:02:23;100577.16;;;7.06;90.02
35908;BME280;22003;50.320;8.054;2023-04-09T07:04:49;100575.69;;;7.18;89.29
35908;BME280;22003;50.320;8.054;2023-04-09T07:07:14;100514.75;;;6.72;91.89
35908;BME280;22003;50.320;8.054;2023-04-09T07:09:41;100507.53;;;6.58;90.82
35908;BME280;22003;50.320;8.054;2023-04-09T07:12:06;100577.84;;;7.09;93.07
35908;BME280;22003;50.320;8.054;2023-04-09T07:14:32;100579.16;;;7.35;90.62
35908;BME280;22003;50.320;8.054;2023-04-09T07:16:57;100568.16;;;7.10;90.28
35908;BME280;22003;50.320;8.054;2023-04-09T07:19:22;100553.13;;;7.12;88.97
35908;BME280;22003;50.320;8.054;2023-04-09T07:21:47;100569.53;;;7.52;89.17
35908;BME280;22003;50.320;8.054;2023-04-09T07:24:13;100541.53;;;7.32;86.99
35908;BME280;22003;50.320;8.054;2023-04-09T07:26:38;100501.91;;;7.00;88.17
35908;BME280;22003;50.320;8.054;2023-04-09T07:29:03;100576.59;;;7.34;87.86
35908;BME280;22003;50.320;8.054;2023-04-09T07:31:29;100538.06;;;7.64;86.26
35908;BME280;22003;50.320;8.054;2023-04-09T07:33:54;100577.19;;;7.56;86.61
35908;BME280;22003;50.320;8.054;2023-04-09T07:36:19;100573.03;;;7.35;87.38
35908;BME280;22003;50.320;8.054;2023-04-09T07:38:45;100578.78;;;7.76;87.75
35908;BME280;22003;50.320;8.054;2023-04-09T07:41:10;100570.03;;;8.40;82.14
35908;BME280;22003;50.320;8.054;2023-04-09T07:43:35;100575.72;;;8.64;81.89
35908;BME280;22003;50.320;8.054;2023-04-09T07:46:01;100525.38;;;8.04;82.75
35908;BME280;22003;50.320;8.054;2023-04-09T07:48:26;100565.81;;;8.20;83.48
35908;BME280;22003;50.320;8.054;2023-04-09T07:50:52;100576.84;;;8.44;83.42
35908;BME280;22003;50.320;8.054;2023-04-09T07:53:17;100561.78;;;8.77;79.52
35908;BME280;22003;50.320;8.054;2023-04-09T07:55:42;100572.75;;;9.01;81.80
35908;BME280;22003;50.320;8.054;2023-04-09T07:58:07;100563.00;;;8.71;81.93
35908;BME280;22003;50.320;8.054;2023-04-09T08:00:33;100575.69;;;9.10;85.30
35908;BME280;22003;50.320;8.054;2023-04-09T08:02:58;100578.22;;;8.97;85.20
35908;BME280;22003;50.320;8.054;2023-04-09T08:05:23;100582.09;;;9.36;82.57
35908;BME280;22003;50.320;8.054;2023-04-09T08:07:52;100565.84;;;9.28;78.89
35908;BME280;22003;50.320;8.054;2023-04-09T08:10:17;100567.28;;;9.34;80.53
35908;BME280;22003;50.320;8.054;2023-04-09T08:12:43;100562.00;;;9.76;78.71
35908;BME280;22003;50.320;8.054;2023-04-09T08:15:09;100557.97;;;9.99;79.57
35908;BME280;22003;50.320;8.054;2023-04-09T08:17:34;100566.47;;;9.62;79.86
35908;BME280;22003;50.320;8.054;2023-04-09T08:20:03;100569.41;;;10.00;79.31
35908;BME280;22003;50.320;8.054;2023-04-09T08:22:29;100574.75;;;10.27;80.63
35908;BME280;22003;50.320;8.054;2023-04-09T08:24:55;100565.69;;;10.17;79.03
35908;BME280;22003;50.320;8.054;2023-04-09T08:27:20;100579.06;;;9.28;82.31
35908;BME280;22003;50.320;8.054;2023-04-09T08:29:46;100581.63;;;8.99;83.11
35908;BME280;22003;50.320;8.054;2023-04-09T08:32:11;100576.13;;;9.33;82.22
35908;BME280;22003;50.320;8.054;2023-04-09T08:34:36;100571.28;;;9.84;80.52
35908;BME280;22003;50.320;8.054;2023-04-09T08:37:02;100562.31;;;10.00;78.54
35908;BME280;22003;50.320;8.054;2023-04-09T08:39:27;100575.72;;;10.26;80.63
35908;BME280;22003;50.320;8.054;2023-04-09T08:41:57;100567.34;;;10.73;76.94
35908;BME280;22003;50.320;8.054;2023-04-09T08:44:26;100524.34;;;10.14;77.35
35908;BME280;22003;50.320;8.054;2023-04-09T08:46:52;100573.44;;;9.63;82.32
35908;BME280;22003;50.320;8.054;2023-04-09T08:49:18;100571.50;;;9.22;82.62
35908;BME280;22003;50.320;8.054;2023-04-09T08:51:47;100573.06;;;10.12;80.97
35908;BME280;22003;50.320;8.054;2023-04-09T08:54:16;100568.91;;;9.50;83.32
35908;BME280;22003;50.320;8.054;2023-04-09T08:56:44;100507.75;;;9.26;84.63
35908;BME280;22003;50.320;8.054;2023-04-09T08:59:09;100574.66;;;9.57;83.15
35908;BME280;22003;50.320;8.054;2023-04-09T09:01:34;100532.06;;;9.33;82.96
35908;BME280;22003;50.320;8.054;2023-04-09T09:06:27;100527.13;;;9.41;80.35
35908;BME280;22003;50.320;8.054;2023-04-09T09:09:11;100574.59;;;9.73;80.87
35908;BME280;22003;50.320;8.054;2023-04-09T09:11:38;100567.88;;;9.67;81.46
35908;BME280;22003;50.320;8.054;2023-04-09T09:14:06;100575.34;;;9.61;81.52
35908;BME280;22003;50.320;8.054;2023-04-09T09:16:34;100564.47;;;9.79;79.51
35908;BME280;22003;50.320;8.054;2023-04-09T09:19:04;100558.97;;;10.11;78.19
35908;BME280;22003;50.320;8.054;2023-04-09T09:21:30;100538.22;;;10.32;79.11
35908;BME280;22003;50.320;8.054;2023-04-09T09:23:55;100563.41;;;10.25;78.55
35908;BME280;22003;50.320;8.054;2023-04-09T09:26:23;100568.50;;;10.14;78.45
35908;BME280;22003;50.320;8.054;2023-04-09T09:28:50;100560.84;;;10.09;78.93
35908;BME280;22003;50.320;8.054;2023-04-09T09:31:18;100563.44;;;10.11;79.75
35908;BME280;22003;50.320;8.054;2023-04-09T09:33:44;100526.28;;;9.84;78.39
35908;BME280;22003;50.320;8.054;2023-04-09T09:36:11;100562.47;;;10.26;79.25
35908;BME280;22003;50.320;8.054;2023-04-09T09:38:54;100567.38;;;10.32;78.05
35908;BME280;22003;50.320;8.054;2023-04-09T09:41:20;100561.69;;;10.38;76.79
35908;BME280;22003;50.320;8.054;2023-04-09T09:43:45;100478.81;;;10.36;77.98
35908;BME280;22003;50.320;8.054;2023-04-09T09:46:11;100542.06;;;10.55;75.74
35908;BME280;22003;50.320;8.054;2023-04-09T09:48:37;100515.38;;;10.71;72.68
35908;BME280;22003;50.320;8.054;2023-04-09T09:51:07;100533.19;;;10.69;72.42
35908;BME280;22003;50.320;8.054;2023-04-09T09:53:34;100543.06;;;11.06;72.14
35908;BME280;22003;50.320;8.054;2023-04-09T09:56:01;100528.56;;;11.63;68.82
35908;BME280;22003;50.320;8.054;2023-04-09T09:58:35;100484.84;;;11.18;69.68
35908;BME280;22003;50.320;8.054;2023-04-09T10:01:06;100539.06;;;11.77;69.26
35908;BME280;22003;50.320;8.054;2023-04-09T10:03:33;100527.59;;;11.51;72.42
35908;BME280;22003;50.320;8.054;2023-04-09T10:06:02;100535.41;;;12.17;69.63
35908;BME280;22003;50.320;8.054;2023-04-09T10:08:28;100512.81;;;12.35;66.91
35908;BME280;22003;50.320;8.054;2023-04-09T10:10:54;100508.91;;;12.52;65.14
35908;BME280;22003;50.320;8.054;2023-04-09T10:13:24;100470.84;;;12.51;63.50
35908;BME280;22003;50.320;8.054;2023-04-09T10:15:51;100477.75;;;12.30;64.58
35908;BME280;22003;50.320;8.054;2023-04-09T10:18:17;100519.72;;;12.97;66.31
35908;BME280;22003;50.320;8.054;2023-04-09T10:20:49;100465.88;;;12.82;62.80
35908;BME280;22003;50.320;8.054;2023-04-09T10:23:38;100513.19;;;12.89;62.11
35908;BME280;22003;50.320;8.054;2023-04-09T10:26:05;100514.53;;;12.95;62.29
35908;BME280;22003;50.320;8.054;2023-04-09T10:28:30;100464.16;;;12.69;63.27
35908;BME280;22003;50.320;8.054;2023-04-09T10:30:56;100493.00;;;13.33;62.13
35908;BME280;22003;50.320;8.054;2023-04-09T10:33:23;100516.13;;;13.33;63.36
35908;BME280;22003;50.320;8.054;2023-04-09T10:35:51;100505.47;;;13.44;61.84
35908;BME280;22003;50.320;8.054;2023-04-09T10:38:32;100501.59;;;13.02;61.48
35908;BME280;22003;50.320;8.054;2023-04-09T10:40:57;100478.13;;;13.42;60.39
35908;BME280;22003;50.320;8.054;2023-04-09T10:43:22;100442.31;;;13.46;59.84
35908;BME280;22003;50.320;8.054;2023-04-09T10:45:48;100496.44;;;14.35;60.25
35908;BME280;22003;50.320;8.054;2023-04-09T10:48:18;100489.84;;;14.61;58.93
35908;BME280;22003;50.320;8.054;2023-04-09T10:50:44;100450.38;;;13.89;59.70
35908;BME280;22003;50.320;8.054;2023-04-09T10:53:21;100493.50;;;13.72;57.71
35908;BME280;22003;50.320;8.054;2023-04-09T10:55:49;100498.22;;;14.45;59.17
35908;BME280;22003;50.320;8.054;2023-04-09T10:58:15;100500.50;;;14.07;57.37
35908;BME280;22003;50.320;8.054;2023-04-09T11:00:47;100452.69;;;13.27;57.58
35908;BME280;22003;50.320;8.054;2023-04-09T11:03:26;100499.41;;;13.87;58.30
35908;BME280;22003;50.320;8.054;2023-04-09T11:05:57;100507.38;;;14.09;60.06
35908;BME280;22003;50.320;8.054;2023-04-09T11:08:27;100496.97;;;14.06;57.76
35908;BME280;22003;50.320;8.054;2023-04-09T11:10:52;100501.47;;;14.06;59.47
35908;BME280;22003;50.320;8.054;2023-04-09T11:13:22;100439.13;;;13.18;58.51
35908;BME280;22003;50.320;8.054;2023-04-09T11:15:47;100504.25;;;13.93;58.71
35908;BME280;22003;50.320;8.054;2023-04-09T11:18:23;100494.59;;;14.35;58.50
35908;BME280;22003;50.320;8.054;2023-04-09T11:20:53;100445.63;;;14.04;58.26
35908;BME280;22003;50.320;8.054;2023-04-09T11:23:18;100488.78;;;14.52;57.67
35908;BME280;22003;50.320;8.054;2023-04-09T11:25:48;100492.97;;;14.12;58.19
35908;BME280;22003;50.320;8.054;2023-04-09T11:28:14;100487.50;;;14.24;57.53
35908;BME280;22003;50.320;8.054;2023-04-09T11:30:39;100489.19;;;14.25;58.14
35908;BME280;22003;50.320;8.054;2023-04-09T11:33:05;100474.81;;;14.06;57.68
35908;BME280;22003;50.320;8.054;2023-04-09T11:35:32;100412.38;;;13.76;58.32
35908;BME280;22003;50.320;8.054;2023-04-09T11:37:58;100482.44;;;14.53;56.67
35908;BME280;22003;50.320;8.054;2023-04-09T11:40:26;100488.31;;;14.36;57.86
35908;BME280;22003;50.320;8.054;2023-04-09T11:42:54;100487.63;;;14.66;56.76
35908;BME280;22003;50.320;8.054;2023-04-09T11:45:22;100478.78;;;14.66;54.08
35908;BME280;22003;50.320;8.054;2023-04-09T11:47:48;100489.56;;;14.64;54.83
35908;BME280;22003;50.320;8.054;2023-04-09T11:50:14;100488.06;;;14.39;55.87
35908;BME280;22003;50.320;8.054;2023-04-09T11:52:40;100453.06;;;14.33;54.89
35908;BME280;22003;50.320;8.054;2023-04-09T11:55:07;100489.13;;;14.48;56.27
35908;BME280;22003;50.320;8.054;2023-04-09T12:00:10;100474.97;;;14.79;54.61
35908;BME280;22003;50.320;8.054;2023-04-09T12:02:46;100473.50;;;14.75;55.79
35908;BME280;22003;50.320;8.054;2023-04-09T12:05:20;100482.59;;;14.52;56.43
35908;BME280;22003;50.320;8.054;2023-04-09T12:07:45;100485.25;;;14.84;56.32
35908;BME280;22003;50.320;8.054;2023-04-09T12:10:11;100485.50;;;14.38;55.14
35908;BME280;22003;50.320;8.054;2023-04-09T12:12:44;100478.84;;;13.89;54.93
35908;BME280;22003;50.320;8.054;2023-04-09T12:15:20;100416.91;;;13.31;53.52
35908;BME280;22003;50.320;8.054;2023-04-09T12:17:47;100397.69;;;13.38;55.15
35908;BME280;22003;50.320;8.054;2023-04-09T12:20:13;100468.31;;;13.65;55.09
35908;BME280;22003;50.320;8.054;2023-04-09T12:22:38;100457.06;;;13.84;57.62
35908;BME280;22003;50.320;8.054;2023-04-09T12:25:06;100441.31;;;14.35;55.33
35908;BME280;22003;50.320;8.054;2023-04-09T12:27:32;100428.59;;;14.60;56.17
35908;BME280;22003;50.320;8.054;2023-04-09T12:29:57;100469.88;;;14.97;54.89
35908;BME280;22003;50.320;8.054;2023-04-09T12:32:22;100458.53;;;15.77;51.67
35908;BME280;22003;50.320;8.054;2023-04-09T12:34:47;100459.84;;;15.62;52.42
35908;BME280;22003;50.320;8.054;2023-04-09T12:37:14;100457.16;;;15.31;51.37
35908;BME280;22003;50.320;8.054;2023-04-09T12:39:39;100446.44;;;14.59;49.85
35908;BME280;22003;50.320;8.054;2023-04-09T12:42:05;100450.09;;;14.58;52.37
35908;BME280;22003;50.320;8.054;2023-04-09T12:44:30;100443.34;;;15.26;50.06
35908;BME280;22003;50.320;8.054;2023-04-09T12:46:57;100451.41;;;15.36;53.05
35908;BME280;22003;50.320;8.054;2023-04-09T12:49:22;100394.84;;;14.91;51.98
35908;BME280;22003;50.320;8.054;2023-04-09T12:51:48;100443.50;;;15.25;53.59
35908;BME280;22003;50.320;8.054;2023-04-09T12:54:13;100442.47;;;14.74;52.46
35908;BME280;22003;50.320;8.054;2023-04-09T12:56:38;100367.84;;;14.21;50.60
35908;BME280;22003;50.320;8.054;2023-04-09T12:59:03;100442.34;;;14.55;52.89
35908;BME280;22003;50.320;8.054;2023-04-09T13:01:29;100449.13;;;15.01;52.61
35908;BME280;22003;50.320;8.054;2023-04-09T13:03:55;100450.75;;;15.13;53.36
35908;BME280;22003;50.320;8.054;2023-04-09T13:06:20;100426.16;;;15.40;52.01
35908;BME280;22003;50.320;8.054;2023-04-09T13:08:46;100448.94;;;15.75;50.72
35908;BME280;22003;50.320;8.054;2023-04-09T13:11:12;100437.22;;;16.06;50.15
35908;BME280;22003;50.320;8.054;2023-04-09T13:13:37;100442.28;;;16.19;51.39
35908;BME280;22003;50.320;8.054;2023-04-09T13:16:02;100439.25;;;15.74;50.37
35908;BME280;22003;50.320;8.054;2023-04-09T13:18:28;100438.03;;;15.26;50.96
35908;BME280;22003;50.320;8.054;2023-04-09T13:20:53;100403.00;;;14.68;51.77
35908;BME280;22003;50.320;8.054;2023-04-09T13:23:18;100439.44;;;15.00;50.66
35908;BME280;22003;50.320;8.054;2023-04-09T13:25:43;100448.59;;;14.65;50.35
35908;BME280;22003;50.320;8.054;2023-04-09T13:28:09;100441.75;;;14.93;51.04
35908;BME280;22003;50.320;8.054;2023-04-09T13:30:34;100443.09;;;14.78;50.93
35908;BME280;22003;50.320;8.054;2023-04-09T13:32:59;100440.66;;;14.43;52.53
35908;BME280;22003;50.320;8.054;2023-04-09T13:35:25;100433.25;;;14.78;51.94
35908;BME280;22003;50.320;8.054;2023-04-09T13:37:51;100391.81;;;14.21;52.86
35908;BME280;22003;50.320;8.054;2023-04-09T13:40:16;100412.28;;;14.53;52.65
35908;BME280;22003;50.320;8.054;2023-04-09T13:42:41;100432.41;;;14.14;52.34
35908;BME280;22003;50.320;8.054;2023-04-09T13:45:07;100424.97;;;14.29;55.38
35908;BME280;22003;50.320;8.054;2023-04-09T13:47:32;100384.66;;;13.79;54.13
35908;BME280;22003;50.320;8.054;2023-04-09T13:49:57;100423.47;;;14.36;55.16
35908;BME280;22003;50.320;8.054;2023-04-09T13:52:23;100426.09;;;14.15;53.79
35908;BME280;22003;50.320;8.054;2023-04-09T13:54:48;100366.34;;;13.96;55.17
35908;BME280;22003;50.320;8.054;2023-04-09T13:57:14;100421.25;;;14.52;54.24
35908;BME280;22003;50.320;8.054;2023-04-09T13:59:40;100410.38;;;14.44;53.73
35908;BME280;22003;50.320;8.054;2023-04-09T14:02:06;100369.25;;;14.25;52.35
35908;BME280;22003;50.320;8.054;2023-04-09T14:04:31;100358.34;;;13.96;53.83
35908;BME280;22003;50.320;8.054;2023-04-09T14:06:57;100409.84;;;14.61;53.11
35908;BME280;22003;50.320;8.054;2023-04-09T14:09:22;100420.81;;;14.68;53.75
35908;BME280;22003;50.320;8.054;2023-04-09T14:11:47;100417.50;;;14.75;53.40
35908;BME280;22003;50.320;8.054;2023-04-09T14:14:13;100415.50;;;14.89;53.51
35908;BME280;22003;50.320;8.054;2023-04-09T14:16:39;100409.94;;;15.22;52.73
35908;BME280;22003;50.320;8.054;2023-04-09T14:19:04;100396.16;;;14.75;51.23
35908;BME280;22003;50.320;8.054;2023-04-09T14:21:30;100373.66;;;14.68;51.92
35908;BME280;22003;50.320;8.054;2023-04-09T14:23:56;100403.84;;;15.20;52.86
35908;BME280;22003;50.320;8.054;2023-04-09T14:26:21;100385.31;;;14.67;56.04
35908;BME280;22003;50.320;8.054;2023-04-09T14:28:47;100355.00;;;15.29;54.00
35908;BME280;22003;50.320;8.054;2023-04-09T14:31:13;100394.72;;;15.94;51.46
35908;BME280;22003;50.320;8.054;2023-04-09T14:33:39;100395.78;;;14.27;51.56
35908;BME280;22003;50.320;8.054;2023-04-09T14:36:05;100357.81;;;14.35;53.38
35908;BME280;22003;50.320;8.054;2023-04-09T14:38:31;100402.34;;;14.55;54.32
35908;BME280;22003;50.320;8.054;2023-04-09T14:40:56;100393.91;;;14.39;53.22
35908;BME280;22003;50.320;8.054;2023-04-09T14:43:21;100407.03;;;14.63;53.55
35908;BME280;22003;50.320;8.054;2023-04-09T14:45:47;100404.16;;;14.55;53.61
35908;BME280;22003;50.320;8.054;2023-04-09T14:48:12;100369.78;;;14.40;52.43
35908;BME280;22003;50.320;8.054;2023-04-09T14:50:37;100396.44;;;14.72;53.17
35908;BME280;22003;50.320;8.054;2023-04-09T14:53:03;100389.59;;;14.59;51.41
35908;BME280;22003;50.320;8.054;2023-04-09T14:55:28;100379.31;;;14.75;52.33
35908;BME280;22003;50.320;8.054;2023-04-09T14:57:54;100387.28;;;15.57;52.12
35908;BME280;22003;50.320;8.054;2023-04-09T15:00:20;100391.06;;;15.54;51.75
35908;BME280;22003;50.320;8.054;2023-04-09T15:02:45;100376.16;;;15.12;49.02
35908;BME280;22003;50.320;8.054;2023-04-09T15:05:11;100380.22;;;14.85;51.83
35908;BME280;22003;50.320;8.054;2023-04-09T15:07:37;100319.81;;;14.53;52.33
35908;BME280;22003;50.320;8.054;2023-04-09T15:10:03;100317.38;;;15.42;51.99
35908;BME280;22003;50.320;8.054;2023-04-09T15:12:32;100383.78;;;16.16;50.62
35908;BME280;22003;50.320;8.054;2023-04-09T15:14:57;100339.72;;;15.91;49.64
35908;BME280;22003;50.320;8.054;2023-04-09T15:17:24;100327.50;;;15.89;48.93
35908;BME280;22003;50.320;8.054;2023-04-09T15:19:50;100368.28;;;16.00;49.00
35908;BME280;22003;50.320;8.054;2023-04-09T15:22:16;100372.50;;;16.42;48.05
35908;BME280;22003;50.320;8.054;2023-04-09T15:24:41;100367.25;;;16.69;48.73
35908;BME280;22003;50.320;8.054;2023-04-09T15:27:06;100365.03;;;16.55;48.51
35908;BME280;22003;50.320;8.054;2023-04-09T15:29:32;100327.72;;;16.53;47.73
35908;BME280;22003;50.320;8.054;2023-04-09T15:31:57;100356.19;;;16.35;46.82
35908;BME280;22003;50.320;8.054;2023-04-09T15:34:22;100359.38;;;16.58;47.15
35908;BME280;22003;50.320;8.054;2023-04-09T15:36:49;100303.84;;;16.32;47.42
35908;BME280;22003;50.320;8.054;2023-04-09T15:39:15;100352.41;;;15.58;47.49
35908;BME280;22003;50.320;8.054;2023-04-09T15:41:40;100367.16;;;16.22;49.36
35908;BME280;22003;50.320;8.054;2023-04-09T15:44:06;100354.63;;;16.03;48.05
35908;BME280;22003;50.320;8.054;2023-04-09T15:46:32;100362.66;;;16.23;47.58
35908;BME280;22003;50.320;8.054;2023-04-09T15:48:57;100357.69;;;16.67;48.66
35908;BME280;22003;50.320;8.054;2023-04-09T15:51:23;100300.91;;;15.97;47.64
35908;BME280;22003;50.320;8.054;2023-04-09T15:53:48;100356.75;;;16.19;49.61
35908;BME280;22003;50.320;8.054;2023-04-09T15:56:13;100342.50;;;16.48;48.02
35908;BME280;22003;50.320;8.054;2023-04-09T15:58:41;100339.50;;;16.70;47.14
35908;BME280;22003;50.320;8.054;2023-04-09T16:01:08;100347.00;;;16.57;48.50
35908;BME280;22003;50.320;8.054;2023-04-09T16:03:33;100321.00;;;16.20;47.26
35908;BME280;22003;50.320;8.054;2023-04-09T16:06:07;100319.31;;;16.19;48.63
35908;BME280;22003;50.320;8.054;2023-04-09T16:08:36;100327.19;;;16.50;48.36
35908;BME280;22003;50.320;8.054;2023-04-09T16:11:02;100341.81;;;16.36;49.54
35908;BME280;22003;50.320;8.054;2023-04-09T16:13:28;100342.50;;;16.48;49.67
35908;BME280;22003;50.320;8.054;2023-04-09T16:15:53;100344.34;;;16.47;48.84
35908;BME280;22003;50.320;8.054;2023-04-09T16:18:18;100340.66;;;16.58;48.43
35908;BME280;22003;50.320;8.054;2023-04-09T16:20:43;100333.22;;;16.52;48.71
35908;BME280;22003;50.320;8.054;2023-04-09T16:23:09;100284.97;;;16.24;47.99
35908;BME280;22003;50.320;8.054;2023-04-09T16:25:34;100337.63;;;16.33;48.64
35908;BME280;22003;50.320;8.054;2023-04-09T16:28:00;100339.03;;;16.28;49.50
35908;BME280;22003;50.320;8.054;2023-04-09T16:30:25;100342.78;;;16.74;49.20
35908;BME280;22003;50.320;8.054;2023-04-09T16:32:50;100339.19;;;16.93;47.54
35908;BME280;22003;50.320;8.054;2023-04-09T16:35:16;100335.78;;;16.44;48.69
35908;BME280;22003;50.320;8.054;2023-04-09T16:37:41;100336.19;;;16.29;49.03
35908;BME280;22003;50.320;8.054;2023-04-09T16:40:06;100334.22;;;16.31;48.79
35908;BME280;22003;50.320;8.054;2023-04-09T16:42:32;100339.00;;;16.08;49.64
35908;BME280;22003;50.320;8.054;2023-04-09T16:44:58;100300.13;;;15.56;50.24
35908;BME280;22003;50.320;8.054;2023-04-09T16:47:24;100337.88;;;15.82;49.96
35908;BME280;22003;50.320;8.054;2023-04-09T16:49:49;100334.97;;;15.54;50.11
35908;BME280;22003;50.320;8.054;2023-04-09T16:52:14;100336.34;;;15.79;50.52